Date,TemperatureHighF,TemperatureAvgF,TemperatureLowF,DewpointHighF,DewpointAvgF,DewpointLowF,HumidityHigh,HumidityAvg,HumidityLow,PressureMaxIn,PressureMinIn,WindSpeedMaxMPH,WindSpeedAvgMPH,GustSpeedMaxMPH,PrecipitationSumIn
2013-1-1,35.1,31.4,27.0,21.1,18.9,17.5,70,60,50,29.75,29.17,4,0,7,0.00
2013-1-2,28.0,21.4,17.6,19.1,16.9,14.4,90,83,67,29.58,29.19,4,0,5,0.00
2013-1-3,28.2,24.4,17.2,18.0,15.4,11.2,79,68,62,29.68,29.58,2,0,4,0.00
2013-1-4,23.9,17.4,12.6,13.2,9.9,6.7,81,72,59,29.88,29.66,2,0,2,0.00
2013-1-5,16.0,13.1,8.6,12.3,9.1,5.3,89,84,76,29.88,29.44,2,0,2,0.00
2013-1-6,18.1,12.3,7.9,12.0,8.1,4.8,89,83,73,29.45,29.29,1,0,2,0.00
2013-1-7,11.5,6.4,0.3,8.9,3.6,-2.8,90,87,85,29.56,29.21,2,0,2,0.00
2013-1-8,0.1,-3.7,-6.9,-2.7,-6.8,-9.8,86,83,82,30.17,29.56,1,0,2,0.00
2013-1-9,1.4,-3.1,-5.8,-1.8,-6.2,-8.9,85,83,82,30.25,29.97,0,0,0,0.00
2013-1-10,11.5,7.3,-0.6,8.9,4.3,-3.8,89,87,84,30.13,29.94,0,0,0,0.00
2013-1-11,14.5,11.8,6.6,12.2,9.3,3.8,90,89,87,30.24,29.91,0,0,0,0.00
2013-1-12,27.5,19.1,13.1,26.1,17.3,10.7,95,92,90,30.23,29.74,0,0,0,0.00
2013-1-13,32.7,30.4,27.5,30.0,26.6,23.6,95,86,75,29.77,29.55,0,0,0,0.01
2013-1-14,34.9,32.6,27.7,27.5,25.3,17.1,77,74,64,29.88,29.25,1,0,3,0.30
2013-1-15,27.3,13.2,8.4,18.1,9.6,5.6,91,85,64,30.27,29.88,0,0,0,0.00
2013-1-16,12.9,7.8,3.9,9.6,5.0,1.1,90,88,85,30.29,29.89,0,0,0,0.00
2013-1-17,2.7,-5.3,-12.8,-2.5,-9.7,-15.9,80,77,73,30.27,29.94,0,0,0,0.00
2013-1-18,-3.6,-10.9,-14.8,-9.0,-14.4,-17.5,80,77,70,30.51,30.27,0,0,0,0.00
2013-1-19,8.6,3.3,-9.4,-2.6,-6.3,-13.9,75,62,53,30.52,30.16,0,0,0,0.00
2013-1-20,10.8,7.1,1.2,6.9,2.5,-5.9,87,81,65,30.17,30.08,0,0,0,0.00
2013-1-21,8.2,5.2,-1.5,5.4,1.6,-4.6,88,84,78,30.21,30.09,0,0,0,0.00
2013-1-22,7.9,4.2,-1.5,3.3,0.1,-4.6,87,82,79,30.10,29.80,0,0,0,0.00
2013-1-23,6.4,4.3,0.7,1.3,-1.9,-7.2,82,74,66,29.81,29.68,0,0,0,0.00
2013-1-24,0.7,-5.5,-12.1,-6.9,-13.5,-18.7,67,62,58,29.93,29.74,0,0,0,0.00
2013-1-25,-12.1,-21.8,-29.4,-18.2,-25.4,-32.2,74,71,65,30.13,29.93,0,0,0,0.00
2013-1-26,-23.3,-29.0,-31.7,-26.4,-32.0,-34.7,72,69,68,30.27,30.13,0,0,0,0.38
2013-1-27,-31.5,-36.8,-39.5,-34.5,-39.0,-39.9,68,65,63,30.73,30.27,0,0,0,0.00
2013-1-28,-6.9,-27.4,-39.3,-10.7,-30.4,-39.9,79,69,63,30.75,30.14,0,0,0,0.00
2013-1-29,-3.6,-8.2,-12.1,-12.0,-15.3,-18.4,74,64,52,30.13,29.97,0,0,0,0.00
2013-1-30,8.4,0.1,-7.8,3.0,-4.6,-12.0,81,78,72,30.03,29.74,0,0,0,0.00
2013-1-31,11.7,7.5,4.8,7.1,3.4,0.0,86,83,80,30.17,29.77,0,0,0,0.00